sensor_id;sensor_type;location;lat;lon;timestamp;pressure;altitude;pressure_sealevel;temperature;humidity
45927;BME280;31639;47.614;19.684;2022-09-01T00:02:35;100251.47;;;20.58;43.26
45927;BME280;31639;47.614;19.684;2022-09-01T00:07:36;100258.19;;;20.55;43.17
45927;BME280;31639;47.614;19.684;2022-09-01T00:12:37;100257.09;;;20.56;43.16
45927;BME280;31639;47.614;19.684;2022-09-01T00:17:38;100268.59;;;20.43;44.20
45927;BME280;31639;47.614;19.684;2022-09-01T00:22:38;100275.06;;;20.23;44.53
45927;BME280;31639;47.614;19.684;2022-09-01T00:27:39;100281.94;;;20.10;44.90
45927;BME280;31639;47.614;19.684;2022-09-01T00:32:39;100278.19;;;20.11;45.34
45927;BME280;31639;47.614;19.684;2022-09-01T00:37:40;100286.22;;;20.11;46.87
45927;BME280;31639;47.614;19.684;2022-09-01T00:42:41;100270.44;;;20.09;47.08
45927;BME280;31639;47.614;19.684;2022-09-01T00:47:42;100261.03;;;20.12;46.84
45927;BME280;31639;47.614;19.684;2022-09-01T00:52:49;100264.34;;;20.04;48.17
45927;BME280;31639;47.614;19.684;2022-09-01T00:57:50;100280.28;;;19.95;49.92
45927;BME280;31639;47.614;19.684;2022-09-01T01:02:51;100295.44;;;19.80;51.43
45927;BME280;31639;47.614;19.684;2022-09-01T01:07:59;100304.09;;;19.53;53.04
45927;BME280;31639;47.614;19.684;2022-09-01T01:13:00;100306.56;;;19.25;54.31
45927;BME280;31639;47.614;19.684;2022-09-01T01:18:03;100311.28;;;19.04;56.37
45927;BME280;31639;47.614;19.684;2022-09-01T01:23:11;100322.94;;;18.84;58.37
45927;BME280;31639;47.614;19.684;2022-09-01T01:28:22;100332.72;;;18.64;60.04
45927;BME280;31639;47.614;19.684;2022-09-01T01:33:30;100334.72;;;18.48;61.56
45927;BME280;31639;47.614;19.684;2022-09-01T01:38:31;100334.63;;;18.19;63.99
45927;BME280;31639;47.614;19.684;2022-09-01T01:43:34;100344.06;;;18.00;66.08
45927;BME280;31639;47.614;19.684;2022-09-01T01:48:38;100328.06;;;18.00;68.78
45927;BME280;31639;47.614;19.684;2022-09-01T01:53:40;100329.38;;;18.03;70.00
45927;BME280;31639;47.614;19.684;2022-09-01T01:58:40;100337.88;;;18.15;70.86
45927;BME280;31639;47.614;19.684;2022-09-01T02:03:40;100347.66;;;18.30;70.60
45927;BME280;31639;47.614;19.684;2022-09-01T02:08:41;100351.94;;;18.26;69.05
45927;BME280;31639;47.614;19.684;2022-09-01T02:13:41;100355.97;;;18.19;68.25
45927;BME280;31639;47.614;19.684;2022-09-01T02:18:45;100360.56;;;18.08;67.47
45927;BME280;31639;47.614;19.684;2022-09-01T02:23:55;100351.63;;;17.78;67.96
45927;BME280;31639;47.614;19.684;2022-09-01T02:29:07;100344.22;;;17.54;69.16
45927;BME280;31639;47.614;19.684;2022-09-01T02:34:09;100344.78;;;17.46;69.33
45927;BME280;31639;47.614;19.684;2022-09-01T02:39:21;100350.41;;;17.34;69.88
45927;BME280;31639;47.614;19.684;2022-09-01T02:44:22;100344.81;;;17.25;70.49
45927;BME280;31639;47.614;19.684;2022-09-01T02:49:23;100344.81;;;17.20;71.07
45927;BME280;31639;47.614;19.684;2022-09-01T02:54:28;100330.72;;;17.19;71.43
45927;BME280;31639;47.614;19.684;2022-09-01T02:59:29;100318.97;;;17.15;71.42
45927;BME280;31639;47.614;19.684;2022-09-01T03:04:31;100324.06;;;17.12;72.12
45927;BME280;31639;47.614;19.684;2022-09-01T03:09:34;100321.94;;;16.98;73.15
45927;BME280;31639;47.614;19.684;2022-09-01T03:14:34;100312.06;;;16.83;74.13
45927;BME280;31639;47.614;19.684;2022-09-01T03:19:35;100308.59;;;16.67;75.51
45927;BME280;31639;47.614;19.684;2022-09-01T03:24:42;100300.88;;;16.60;76.24
45927;BME280;31639;47.614;19.684;2022-09-01T03:29:43;100290.75;;;16.57;76.84
45927;BME280;31639;47.614;19.684;2022-09-01T03:34:43;100289.16;;;16.61;77.44
45927;BME280;31639;47.614;19.684;2022-09-01T03:39:44;100301.94;;;16.54;78.20
45927;BME280;31639;47.614;19.684;2022-09-01T03:44:44;100297.66;;;16.43;79.28
45927;BME280;31639;47.614;19.684;2022-09-01T03:49:44;100287.53;;;16.40;80.27
45927;BME280;31639;47.614;19.684;2022-09-01T03:54:47;100296.59;;;16.39;82.55
45927;BME280;31639;47.614;19.684;2022-09-01T03:59:53;100311.22;;;16.31;84.35
45927;BME280;31639;47.614;19.684;2022-09-01T04:04:53;100317.88;;;16.23;85.50
45927;BME280;31639;47.614;19.684;2022-09-01T04:09:54;100309.88;;;16.18;86.56
45927;BME280;31639;47.614;19.684;2022-09-01T04:14:54;100312.00;;;16.16;87.71
45927;BME280;31639;47.614;19.684;2022-09-01T04:19:54;100310.41;;;16.15;89.00
45927;BME280;31639;47.614;19.684;2022-09-01T04:24:55;100315.47;;;16.16;90.19
45927;BME280;31639;47.614;19.684;2022-09-01T04:29:55;100311.72;;;16.12;90.54
45927;BME280;31639;47.614;19.684;2022-09-01T04:34:56;100316.25;;;16.12;90.33
45927;BME280;31639;47.614;19.684;2022-09-01T04:39:57;100311.75;;;16.17;91.11
45927;BME280;31639;47.614;19.684;2022-09-01T04:44:58;100316.81;;;16.14;90.97
45927;BME280;31639;47.614;19.684;2022-09-01T04:50:00;100317.56;;;16.09;91.67
45927;BME280;31639;47.614;19.684;2022-09-01T04:55:01;100308.78;;;16.09;90.82
45927;BME280;31639;47.614;19.684;2022-09-01T05:00:02;100311.47;;;16.14;89.44
45927;BME280;31639;47.614;19.684;2022-09-01T05:05:03;100311.19;;;16.15;89.66
45927;BME280;31639;47.614;19.684;2022-09-01T05:10:07;100313.59;;;16.12;89.74
45927;BME280;31639;47.614;19.684;2022-09-01T05:15:08;100313.59;;;16.17;90.06
45927;BME280;31639;47.614;19.684;2022-09-01T05:20:10;100298.97;;;16.14;91.74
45927;BME280;31639;47.614;19.684;2022-09-01T05:25:11;100288.56;;;16.18;92.29
45927;BME280;31639;47.614;19.684;2022-09-01T05:30:12;100288.31;;;16.19;93.42
45927;BME280;31639;47.614;19.684;2022-09-01T05:35:16;100291.28;;;16.28;93.62
45927;BME280;31639;47.614;19.684;2022-09-01T05:40:16;100287.81;;;16.38;93.73
45927;BME280;31639;47.614;19.684;2022-09-01T05:45:17;100288.63;;;16.44;93.96
45927;BME280;31639;47.614;19.684;2022-09-01T05:50:19;100287.81;;;16.43;93.22
45927;BME280;31639;47.614;19.684;2022-09-01T05:55:20;100281.69;;;16.32;93.30
45927;BME280;31639;47.614;19.684;2022-09-01T06:00:21;100277.97;;;16.33;93.18
45927;BME280;31639;47.614;19.684;2022-09-01T06:05:22;100275.28;;;16.28;93.52
45927;BME280;31639;47.614;19.684;2022-09-01T06:10:22;100282.19;;;16.24;93.59
45927;BME280;31639;47.614;19.684;2022-09-01T06:25:45;100315.25;;;16.33;94.46
45927;BME280;31639;47.614;19.684;2022-09-01T06:30:46;100309.13;;;16.38;94.07
45927;BME280;31639;47.614;19.684;2022-09-01T06:35:47;100312.56;;;16.39;94.57
45927;BME280;31639;47.614;19.684;2022-09-01T06:40:47;100306.19;;;16.45;94.56
45927;BME280;31639;47.614;19.684;2022-09-01T06:45:48;100322.16;;;16.55;94.08
45927;BME280;31639;47.614;19.684;2022-09-01T06:50:53;100318.19;;;16.63;92.93
45927;BME280;31639;47.614;19.684;2022-09-01T06:55:53;100320.59;;;16.70;93.82
45927;BME280;31639;47.614;19.684;2022-09-01T07:00:55;100323.25;;;16.75;94.42
45927;BME280;31639;47.614;19.684;2022-09-01T07:05:56;100338.19;;;16.97;94.33
45927;BME280;31639;47.614;19.684;2022-09-01T07:10:57;100338.72;;;17.04;93.50
45927;BME280;31639;47.614;19.684;2022-09-01T07:15:58;100332.03;;;17.32;93.08
45927;BME280;31639;47.614;19.684;2022-09-01T07:20:59;100325.59;;;17.44;92.03
45927;BME280;31639;47.614;19.684;2022-09-01T07:26:04;100326.06;;;17.61;90.80
45927;BME280;31639;47.614;19.684;2022-09-01T07:31:06;100316.13;;;17.77;88.89
45927;BME280;31639;47.614;19.684;2022-09-01T07:36:07;100318.19;;;17.91;88.16
45927;BME280;31639;47.614;19.684;2022-09-01T07:41:10;100327.94;;;18.21;84.78
45927;BME280;31639;47.614;19.684;2022-09-01T07:46:12;100330.72;;;18.45;82.52
45927;BME280;31639;47.614;19.684;2022-09-01T07:51:13;100332.13;;;18.72;80.34
45927;BME280;31639;47.614;19.684;2022-09-01T07:56:20;100346.91;;;18.99;78.35
45927;BME280;31639;47.614;19.684;2022-09-01T08:01:24;100341.59;;;19.48;75.81
45927;BME280;31639;47.614;19.684;2022-09-01T08:06:26;100342.38;;;19.73;75.39
45927;BME280;31639;47.614;19.684;2022-09-01T08:11:29;100341.50;;;20.02;72.97
45927;BME280;31639;47.614;19.684;2022-09-01T08:16:30;100345.44;;;20.28;72.02
45927;BME280;31639;47.614;19.684;2022-09-01T08:21:31;100348.75;;;20.20;67.64
45927;BME280;31639;47.614;19.684;2022-09-01T08:26:31;100348.38;;;20.27;66.51
45927;BME280;31639;47.614;19.684;2022-09-01T08:31:32;100342.47;;;20.49;64.66
45927;BME280;31639;47.614;19.684;2022-09-01T08:36:35;100333.94;;;20.80;62.21
45927;BME280;31639;47.614;19.684;2022-09-01T08:41:44;100334.28;;;21.07;61.47
45927;BME280;31639;47.614;19.684;2022-09-01T08:46:53;100342.53;;;21.10;61.80
45927;BME280;31639;47.614;19.684;2022-09-01T08:52:05;100336.19;;;21.06;60.57
45927;BME280;31639;47.614;19.684;2022-09-01T08:57:37;100345.13;;;21.15;59.91
45927;BME280;31639;47.614;19.684;2022-09-01T09:18:47;100336.84;;;22.09;53.85
45927;BME280;31639;47.614;19.684;2022-09-01T09:23:55;100330.47;;;22.19;52.67
45927;BME280;31639;47.614;19.684;2022-09-01T09:28:58;100333.59;;;22.35;51.60
45927;BME280;31639;47.614;19.684;2022-09-01T09:33:59;100321.66;;;22.28;51.40
45927;BME280;31639;47.614;19.684;2022-09-01T09:39:04;100326.63;;;22.34;50.07
45927;BME280;31639;47.614;19.684;2022-09-01T09:44:16;100323.28;;;22.51;49.42
45927;BME280;31639;47.614;19.684;2022-09-01T09:49:32;100308.56;;;22.72;49.32
45927;BME280;31639;47.614;19.684;2022-09-01T09:54:35;100309.91;;;23.72;47.63
45927;BME280;31639;47.614;19.684;2022-09-01T09:59:47;100310.69;;;23.90;45.90
45927;BME280;31639;47.614;19.684;2022-09-01T10:04:48;100304.84;;;25.06;43.32
45927;BME280;31639;47.614;19.684;2022-09-01T10:09:50;100300.84;;;26.36;40.71
45927;BME280;31639;47.614;19.684;2022-09-01T10:14:54;100296.81;;;28.32;37.20
45927;BME280;31639;47.614;19.684;2022-09-01T10:20:06;100292.00;;;31.29;31.23
45927;BME280;31639;47.614;19.684;2022-09-01T10:25:13;100298.69;;;34.16;27.38
45927;BME280;31639;47.614;19.684;2022-09-01T10:30:20;100294.00;;;33.25;26.21
45927;BME280;31639;47.614;19.684;2022-09-01T10:35:25;100289.16;;;32.13;26.18
45927;BME280;31639;47.614;19.684;2022-09-01T10:45:35;100278.47;;;31.36;26.45
45927;BME280;31639;47.614;19.684;2022-09-01T10:50:37;100281.09;;;31.60;25.87
45927;BME280;31639;47.614;19.684;2022-09-01T10:55:43;100283.50;;;30.37;27.21
45927;BME280;31639;47.614;19.684;2022-09-01T11:00:48;100283.97;;;29.81;27.48
45927;BME280;31639;47.614;19.684;2022-09-01T11:16:39;100285.97;;;28.64;29.23
45927;BME280;31639;47.614;19.684;2022-09-01T11:21:40;100282.28;;;28.40;29.69
45927;BME280;31639;47.614;19.684;2022-09-01T11:26:47;100281.00;;;27.53;30.25
45927;BME280;31639;47.614;19.684;2022-09-01T11:31:47;100285.28;;;27.41;30.08
45927;BME280;31639;47.614;19.684;2022-09-01T11:36:55;100288.44;;;27.31;30.17
45927;BME280;31639;47.614;19.684;2022-09-01T11:42:00;100284.84;;;27.02;31.00
45927;BME280;31639;47.614;19.684;2022-09-01T11:47:07;100292.63;;;27.41;30.51
45927;BME280;31639;47.614;19.684;2022-09-01T11:52:14;100292.06;;;28.29;29.88
45927;BME280;31639;47.614;19.684;2022-09-01T11:57:23;100291.06;;;29.85;28.23
45927;BME280;31639;47.614;19.684;2022-09-01T12:02:35;100293.13;;;31.85;25.97
45927;BME280;31639;47.614;19.684;2022-09-01T12:07:45;100285.41;;;34.11;23.37
45927;BME280;31639;47.614;19.684;2022-09-01T12:12:46;100280.81;;;35.91;21.25
45927;BME280;31639;47.614;19.684;2022-09-01T12:17:47;100292.06;;;34.24;22.39
45927;BME280;31639;47.614;19.684;2022-09-01T12:22:48;100287.94;;;33.57;22.32
45927;BME280;31639;47.614;19.684;2022-09-01T12:27:49;100291.31;;;33.35;22.48
45927;BME280;31639;47.614;19.684;2022-09-01T12:32:50;100290.53;;;33.35;22.38
45927;BME280;31639;47.614;19.684;2022-09-01T12:43:36;100287.69;;;35.46;20.93
45927;BME280;31639;47.614;19.684;2022-09-01T12:48:39;100281.19;;;36.00;20.39
45927;BME280;31639;47.614;19.684;2022-09-01T12:53:50;100279.53;;;36.14;19.80
45927;BME280;31639;47.614;19.684;2022-09-01T12:59:04;100279.34;;;36.35;19.25
45927;BME280;31639;47.614;19.684;2022-09-01T13:04:14;100271.75;;;37.38;18.86
45927;BME280;31639;47.614;19.684;2022-09-01T13:09:14;100278.69;;;38.83;17.41
45927;BME280;31639;47.614;19.684;2022-09-01T13:14:15;100267.59;;;38.87;17.02
45927;BME280;31639;47.614;19.684;2022-09-01T13:19:15;100273.72;;;40.28;15.98
45927;BME280;31639;47.614;19.684;2022-09-01T13:24:16;100275.88;;;40.21;15.72
45927;BME280;31639;47.614;19.684;2022-09-01T13:29:17;100274.72;;;38.84;16.03
45927;BME280;31639;47.614;19.684;2022-09-01T13:34:18;100266.41;;;40.68;15.11
45927;BME280;31639;47.614;19.684;2022-09-01T13:39:19;100260.88;;;41.40;14.38
45927;BME280;31639;47.614;19.684;2022-09-01T13:44:20;100268.63;;;42.35;13.94
45927;BME280;31639;47.614;19.684;2022-09-01T13:49:20;100268.56;;;40.60;14.56
45927;BME280;31639;47.614;19.684;2022-09-01T13:54:21;100268.31;;;37.26;16.09
45927;BME280;31639;47.614;19.684;2022-09-01T13:59:21;100269.81;;;35.98;16.91
45927;BME280;31639;47.614;19.684;2022-09-01T14:04:22;100259.22;;;34.24;18.41
45927;BME280;31639;47.614;19.684;2022-09-01T14:09:22;100254.25;;;33.38;19.17
45927;BME280;31639;47.614;19.684;2022-09-01T14:14:23;100264.47;;;32.37;20.08
45927;BME280;31639;47.614;19.684;2022-09-01T14:19:23;100273.34;;;31.92;21.14
45927;BME280;31639;47.614;19.684;2022-09-01T14:24:23;100265.38;;;31.76;21.51
45927;BME280;31639;47.614;19.684;2022-09-01T14:29:25;100262.09;;;31.97;21.45
45927;BME280;31639;47.614;19.684;2022-09-01T14:34:26;100256.59;;;32.31;21.16
45927;BME280;31639;47.614;19.684;2022-09-01T14:39:27;100248.97;;;32.10;21.45
45927;BME280;31639;47.614;19.684;2022-09-01T14:44:27;100257.78;;;31.32;22.00
45927;BME280;31639;47.614;19.684;2022-09-01T14:49:28;100260.78;;;30.49;21.69
45927;BME280;31639;47.614;19.684;2022-09-01T14:54:33;100256.56;;;30.09;21.66
45927;BME280;31639;47.614;19.684;2022-09-01T14:59:34;100265.88;;;30.08;22.17
45927;BME280;31639;47.614;19.684;2022-09-01T15:04:35;100269.41;;;30.09;22.50
45927;BME280;31639;47.614;19.684;2022-09-01T15:09:36;100262.50;;;30.58;22.19
45927;BME280;31639;47.614;19.684;2022-09-01T15:14:37;100264.66;;;31.52;21.27
45927;BME280;31639;47.614;19.684;2022-09-01T15:19:38;100257.38;;;31.60;21.65
45927;BME280;31639;47.614;19.684;2022-09-01T15:24:39;100261.00;;;31.41;20.99
45927;BME280;31639;47.614;19.684;2022-09-01T15:29:39;100261.97;;;31.25;21.38
45927;BME280;31639;47.614;19.684;2022-09-01T15:34:48;100259.94;;;30.69;21.90
45927;BME280;31639;47.614;19.684;2022-09-01T15:39:48;100263.75;;;30.41;22.47
45927;BME280;31639;47.614;19.684;2022-09-01T15:44:48;100268.25;;;31.03;22.21
45927;BME280;31639;47.614;19.684;2022-09-01T15:49:49;100269.84;;;32.29;22.03
45927;BME280;31639;47.614;19.684;2022-09-01T15:54:49;100270.78;;;32.48;21.62
45927;BME280;31639;47.614;19.684;2022-09-01T15:59:50;100263.59;;;32.74;21.15
45927;BME280;31639;47.614;19.684;2022-09-01T16:04:50;100275.72;;;32.80;20.84
45927;BME280;31639;47.614;19.684;2022-09-01T16:09:54;100283.56;;;33.41;20.28
45927;BME280;31639;47.614;19.684;2022-09-01T16:14:56;100271.50;;;33.53;19.73
45927;BME280;31639;47.614;19.684;2022-09-01T16:20:02;100277.78;;;33.64;19.61
45927;BME280;31639;47.614;19.684;2022-09-01T16:25:13;100281.63;;;33.45;19.55
45927;BME280;31639;47.614;19.684;2022-09-01T16:30:18;100276.63;;;32.09;20.13
45927;BME280;31639;47.614;19.684;2022-09-01T16:35:22;100274.19;;;30.39;21.25
45927;BME280;31639;47.614;19.684;2022-09-01T16:51:51;100284.31;;;25.53;26.00
45927;BME280;31639;47.614;19.684;2022-09-01T16:57:04;100283.59;;;24.40;28.04
45927;BME280;31639;47.614;19.684;2022-09-01T17:07:43;100287.00;;;23.03;30.88
45927;BME280;31639;47.614;19.684;2022-09-01T17:12:54;100287.91;;;22.58;32.49
45927;BME280;31639;47.614;19.684;2022-09-01T17:18:08;100281.09;;;22.15;34.74
45927;BME280;31639;47.614;19.684;2022-09-01T17:23:16;100296.44;;;21.78;35.55
45927;BME280;31639;47.614;19.684;2022-09-01T17:28:28;100291.09;;;21.50;36.59
45927;BME280;31639;47.614;19.684;2022-09-01T17:33:44;100300.13;;;21.12;39.72
45927;BME280;31639;47.614;19.684;2022-09-01T17:44:21;100307.25;;;20.56;41.54
45927;BME280;31639;47.614;19.684;2022-09-01T18:00:27;100325.59;;;19.91;46.01
45927;BME280;31639;47.614;19.684;2022-09-01T18:05:44;100345.69;;;19.64;47.44
45927;BME280;31639;47.614;19.684;2022-09-01T18:10:56;100341.03;;;19.51;47.79
45927;BME280;31639;47.614;19.684;2022-09-01T18:16:02;100350.88;;;19.31;48.82
45927;BME280;31639;47.614;19.684;2022-09-01T18:21:30;100356.88;;;19.18;49.48
45927;BME280;31639;47.614;19.684;2022-09-01T18:26:28;100361.16;;;19.19;49.40
45927;BME280;31639;47.614;19.684;2022-09-01T18:36:44;100366.41;;;19.00;51.62
45927;BME280;31639;47.614;19.684;2022-09-01T18:46:57;100358.97;;;18.91;51.63
45927;BME280;31639;47.614;19.684;2022-09-01T18:57:11;100376.41;;;18.84;50.90
45927;BME280;31639;47.614;19.684;2022-09-01T19:24:14;100391.41;;;18.80;48.81
45927;BME280;31639;47.614;19.684;2022-09-01T19:29:25;100397.59;;;18.75;48.42
45927;BME280;31639;47.614;19.684;2022-09-01T19:34:49;100396.78;;;18.74;48.00
45927;BME280;31639;47.614;19.684;2022-09-01T19:39:51;100391.19;;;18.71;47.83
45927;BME280;31639;47.614;19.684;2022-09-01T19:46:03;100392.81;;;18.67;47.88
45927;BME280;31639;47.614;19.684;2022-09-01T20:01:09;100409.25;;;18.50;47.19
45927;BME280;31639;47.614;19.684;2022-09-01T20:06:28;100416.75;;;18.42;46.96
45927;BME280;31639;47.614;19.684;2022-09-01T20:16:44;100423.25;;;18.31;47.16
45927;BME280;31639;47.614;19.684;2022-09-01T20:21:46;100427.00;;;18.20;47.35
45927;BME280;31639;47.614;19.684;2022-09-01T20:32:02;100434.03;;;18.00;47.86
45927;BME280;31639;47.614;19.684;2022-09-01T20:47:37;100441.06;;;17.60;51.33
45927;BME280;31639;47.614;19.684;2022-09-01T20:52:54;100439.50;;;17.38;53.13
45927;BME280;31639;47.614;19.684;2022-09-01T21:19:11;100463.75;;;17.05;52.46
45927;BME280;31639;47.614;19.684;2022-09-01T21:24:17;100461.34;;;16.99;53.63
45927;BME280;31639;47.614;19.684;2022-09-01T21:29:29;100463.13;;;16.83;55.75
45927;BME280;31639;47.614;19.684;2022-09-01T21:34:32;100468.16;;;16.63;56.79
45927;BME280;31639;47.614;19.684;2022-09-01T21:39:32;100467.34;;;16.58;57.17
45927;BME280;31639;47.614;19.684;2022-09-01T21:44:33;100472.66;;;16.53;57.38
45927;BME280;31639;47.614;19.684;2022-09-01T21:49:34;100461.44;;;16.45;58.08
45927;BME280;31639;47.614;19.684;2022-09-01T21:54:34;100470.25;;;16.46;56.72
45927;BME280;31639;47.614;19.684;2022-09-01T21:59:36;100470.50;;;16.49;56.25
45927;BME280;31639;47.614;19.684;2022-09-01T22:04:37;100466.00;;;16.50;55.99
45927;BME280;31639;47.614;19.684;2022-09-01T22:09:37;100462.56;;;16.55;55.57
45927;BME280;31639;47.614;19.684;2022-09-01T22:14:38;100463.09;;;16.57;54.67
45927;BME280;31639;47.614;19.684;2022-09-01T22:19:38;100457.75;;;16.62;54.14
45927;BME280;31639;47.614;19.684;2022-09-01T22:24:39;100447.94;;;16.68;53.24
45927;BME280;31639;47.614;19.684;2022-09-01T22:29:39;100457.53;;;16.74;52.42
45927;BME280;31639;47.614;19.684;2022-09-01T22:34:39;100447.44;;;16.81;51.42
45927;BME280;31639;47.614;19.684;2022-09-01T22:39:40;100445.03;;;16.90;50.77
45927;BME280;31639;47.614;19.684;2022-09-01T22:44:40;100443.22;;;17.01;49.77
45927;BME280;31639;47.614;19.684;2022-09-01T22:49:41;100433.09;;;17.13;48.36
45927;BME280;31639;47.614;19.684;2022-09-01T22:54:41;100423.75;;;17.21;47.94
45927;BME280;31639;47.614;19.684;2022-09-01T22:59:42;100425.06;;;17.29;47.21
45927;BME280;31639;47.614;19.684;2022-09-01T23:04:42;100425.59;;;17.31;47.19
45927;BME280;31639;47.614;19.684;2022-09-01T23:09:45;100428.28;;;17.31;46.81
45927;BME280;31639;47.614;19.684;2022-09-01T23:14:46;100422.41;;;17.29;46.39
45927;BME280;31639;47.614;19.684;2022-09-01T23:19:46;100419.50;;;17.25;46.28
45927;BME280;31639;47.614;19.684;2022-09-01T23:24:46;100415.50;;;17.22;46.06
45927;BME280;31639;47.614;19.684;2022-09-01T23:29:47;100410.69;;;17.19;45.81
45927;BME280;31639;47.614;19.684;2022-09-01T23:34:49;100403.75;;;17.13;45.53
45927;BME280;31639;47.614;19.684;2022-09-01T23:39:49;100409.09;;;17.08;45.44
45927;BME280;31639;47.614;19.684;2022-09-01T23:44:50;100408.28;;;17.07;45.17
45927;BME280;31639;47.614;19.684;2022-09-01T23:49:50;100397.38;;;17.04;44.89
45927;BME280;31639;47.614;19.684;2022-09-01T23:54:51;100395.78;;;16.98;45.01
45927;BME280;31639;47.614;19.684;2022-09-01T23:59:55;100389.59;;;16.87;44.98
